Time;durP1;ratioP1;P1;durP2;ratioP2;P2;SDS_P1;SDS_P2;PMS_P1;PMS_P2;Temp;Humidity;BMP_temperature;BMP_pressure;BME280_temperature;BME280_humidity;BME280_pressure;Samples;Min_cycle;Max_cycle;Signal;HPM_P1;HPM_P2
2022/03/19 00:00:35;;;;;;;24.90;13.90;;;24.00;42.00;;;;;;219390;1273;22550;-51
2022/03/19 00:05:46;;;;;;;27.30;13.70;;;23.90;42.60;;;;;;220513;1273;22543;-51
2022/03/19 00:10:54;;;;;;;24.00;13.90;;;23.80;42.40;;;;;;221454;1274;22564;-52
2022/03/19 00:15:59;;;;;;;23.60;14.10;;;23.70;42.70;;;;;;222252;1274;22705;-53
2022/03/19 00:21:06;;;;;;;25.20;14.10;;;23.60;42.90;;;;;;219108;1273;22539;-51
2022/03/19 00:26:24;;;;;;;23.90;14.30;;;23.50;43.20;;;;;;219316;1273;22670;-53
2022/03/19 00:31:32;;;;;;;24.70;13.70;;;23.50;43.40;;;;;;220871;1273;25379;-52
2022/03/19 00:36:46;;;;;;;28.20;14.80;;;23.30;43.60;;;;;;222221;1273;25510;-51
2022/03/19 00:41:52;;;;;;;24.70;13.90;;;23.30;43.90;;;;;;219739;1273;22544;-53
2022/03/19 00:46:56;;;;;;;19.30;11.90;;;23.30;44.20;;;;;;219955;1271;23323;-52
2022/03/19 00:51:59;;;;;;;19.70;12.50;;;23.20;44.40;;;;;;220050;1273;22537;-49
2022/03/19 00:57:03;;;;;;;24.70;13.90;;;23.10;44.80;;;;;;219043;1273;22618;-52
2022/03/19 01:02:07;;;;;;;23.40;14.10;;;23.10;45.00;;;;;;219276;1273;23860;-50
2022/03/19 01:07:11;;;;;;;18.50;12.10;;;23.00;45.50;;;;;;219170;1273;22610;-55
2022/03/19 01:12:15;;;;;;;24.10;13.30;;;23.00;45.60;;;;;;219148;1273;22534;-51
2022/03/19 01:17:19;;;;;;;24.20;13.90;;;23.00;45.70;;;;;;223395;1273;22522;-53
2022/03/19 01:22:22;;;;;;;21.10;13.70;;;23.00;45.70;;;;;;219282;1273;22642;-55
2022/03/19 01:27:26;;;;;;;19.80;12.60;;;23.00;46.10;;;;;;220580;1273;22602;-51
2022/03/19 01:32:30;;;;;;;21.00;13.20;;;23.00;45.80;;;;;;219207;1273;25338;-51
2022/03/19 01:37:34;;;;;;;23.70;14.40;;;22.90;46.60;;;;;;219303;1273;25635;-51
2022/03/19 01:42:41;;;;;;;24.50;14.00;;;23.00;46.00;;;;;;219166;1273;24222;-52
2022/03/19 01:47:49;;;;;;;23.30;14.20;;;22.90;46.10;;;;;;221603;1273;25488;-50
2022/03/19 01:52:56;;;;;;;20.30;13.60;;;22.90;45.60;;;;;;219634;1273;25631;-53
2022/03/19 01:58:02;;;;;;;23.50;13.20;;;22.90;45.60;;;;;;219989;1273;27707;-51
2022/03/19 02:03:07;;;;;;;20.70;13.90;;;22.80;45.90;;;;;;220489;1273;22649;-55
2022/03/19 02:08:11;;;;;;;19.70;12.40;;;22.80;45.70;;;;;;222568;1273;23130;-53
2022/03/19 02:13:14;;;;;;;23.20;13.30;;;22.70;45.40;;;;;;219366;1273;22753;-52
2022/03/19 02:18:18;;;;;;;21.80;13.30;;;22.60;45.30;;;;;;220602;1272;22592;-51
2022/03/19 02:28:48;;;;;;;19.20;12.50;;;22.60;45.20;;;;;;219143;1273;25507;-51
2022/03/19 02:34:10;;;;;;;19.80;12.30;;;22.50;45.70;;;;;;219718;1273;24192;-51
2022/03/19 02:39:22;;;;;;;18.20;11.70;;;22.50;45.10;;;;;;219117;1273;22757;-51
2022/03/19 02:44:25;;;;;;;18.80;11.90;;;22.40;45.00;;;;;;219124;1273;25311;-53
2022/03/19 02:49:29;;;;;;;24.00;14.00;;;22.40;45.00;;;;;;219239;1273;22707;-52
2022/03/19 02:54:33;;;;;;;27.40;15.20;;;22.40;45.10;;;;;;219024;1273;25440;-53
2022/03/19 02:59:37;;;;;;;20.80;13.30;;;22.30;44.90;;;;;;221042;1273;22737;-51
2022/03/19 03:04:40;;;;;;;19.70;12.80;;;22.30;45.00;;;;;;219187;1273;24681;-52
2022/03/19 03:09:45;;;;;;;19.00;11.90;;;22.30;45.00;;;;;;219205;1273;22548;-54
2022/03/19 03:14:48;;;;;;;20.30;12.40;;;22.20;45.00;;;;;;220085;1273;22699;-53
2022/03/19 03:19:53;;;;;;;21.40;12.20;;;22.30;44.90;;;;;;222098;1273;22636;-50
2022/03/19 03:24:57;;;;;;;19.90;12.20;;;22.70;44.80;;;;;;219495;1273;25428;-55
2022/03/19 03:30:05;;;;;;;18.20;11.30;;;23.00;43.70;;;;;;219439;1273;22830;-54
2022/03/19 03:35:09;;;;;;;16.90;11.30;;;23.30;43.10;;;;;;220737;1273;24344;-53
2022/03/19 03:40:13;;;;;;;19.20;12.00;;;23.50;43.30;;;;;;219309;1273;23033;-51
2022/03/19 03:45:18;;;;;;;19.20;11.30;;;23.70;43.00;;;;;;219533;1273;22576;-51
2022/03/19 03:50:23;;;;;;;20.10;12.30;;;23.80;42.40;;;;;;220370;1274;22552;-51
2022/03/19 03:55:27;;;;;;;19.10;11.70;;;23.80;42.30;;;;;;219109;1273;22620;-52
2022/03/19 04:00:32;;;;;;;17.90;10.90;;;23.90;42.10;;;;;;219709;1273;25545;-54
2022/03/19 04:05:38;;;;;;;19.70;12.50;;;23.90;42.10;;;;;;219518;1273;22594;-54
2022/03/19 04:10:42;;;;;;;22.10;13.40;;;24.00;41.60;;;;;;221731;1273;22537;-55
2022/03/19 04:15:46;;;;;;;18.70;11.30;;;24.10;41.60;;;;;;219426;1273;22547;-53
2022/03/19 04:20:54;;;;;;;19.30;11.80;;;24.10;41.50;;;;;;218967;1273;23370;-54
2022/03/19 04:25:58;;;;;;;19.80;11.00;;;24.10;41.30;;;;;;219071;1273;24227;-53
2022/03/19 04:31:02;;;;;;;17.80;11.40;;;24.20;41.10;;;;;;219773;1273;22823;-54
2022/03/19 04:41:31;;;;;;;17.10;11.30;;;24.20;41.40;;;;;;219239;1273;24334;-54
2022/03/19 04:46:35;;;;;;;21.00;12.50;;;24.20;41.20;;;;;;221275;1273;175770;-51
2022/03/19 04:51:40;;;;;;;18.10;11.30;;;24.10;41.60;;;;;;222549;1273;24246;-53
2022/03/19 04:56:43;;;;;;;18.30;11.80;;;23.90;41.50;;;;;;220085;1273;25398;-54
2022/03/19 05:01:50;;;;;;;17.20;11.30;;;23.80;41.90;;;;;;220235;1273;24752;-54
2022/03/19 05:06:55;;;;;;;19.50;12.00;;;23.60;42.10;;;;;;222211;1273;25224;-54
2022/03/19 05:12:01;;;;;;;18.60;11.80;;;23.50;42.30;;;;;;219546;1273;22553;-52
2022/03/19 05:17:07;;;;;;;19.80;12.80;;;23.40;42.60;;;;;;219707;1273;22623;-52
2022/03/19 05:22:21;;;;;;;18.40;12.20;;;23.30;42.50;;;;;;220733;1276;24272;-51
2022/03/19 05:27:26;;;;;;;19.90;12.50;;;23.20;42.60;;;;;;219242;1273;22584;-53
2022/03/19 05:32:29;;;;;;;23.90;13.40;;;23.20;42.80;;;;;;219370;1272;24365;-53
2022/03/19 05:37:33;;;;;;;19.40;12.60;;;23.10;42.80;;;;;;219570;1273;22597;-51
2022/03/19 05:42:38;;;;;;;16.90;11.00;;;23.00;42.90;;;;;;222297;1272;22556;-52
2022/03/19 05:47:44;;;;;;;20.10;12.80;;;22.90;43.10;;;;;;219340;1273;22830;-54
2022/03/19 05:52:54;;;;;;;20.80;13.30;;;22.90;43.20;;;;;;219376;1273;22553;-51
2022/03/19 05:58:02;;;;;;;20.90;12.70;;;22.80;43.30;;;;;;220018;1273;22537;-52
2022/03/19 06:03:11;;;;;;;20.10;12.70;;;22.80;43.50;;;;;;222434;1273;24265;-51
2022/03/19 06:08:20;;;;;;;19.80;13.00;;;22.70;43.50;;;;;;220233;1273;22553;-52
2022/03/19 06:13:26;;;;;;;17.00;11.80;;;22.70;43.60;;;;;;219390;1273;25488;-53
2022/03/19 06:18:39;;;;;;;18.50;12.50;;;22.60;44.10;;;;;;221795;1273;25587;-53
2022/03/19 06:23:46;;;;;;;20.50;13.40;;;22.60;43.50;;;;;;219255;1273;22571;-54
2022/03/19 06:28:51;;;;;;;17.80;12.20;;;22.50;43.80;;;;;;219275;1273;22558;-54
2022/03/19 06:33:55;;;;;;;19.20;11.30;;;22.50;43.90;;;;;;220756;1272;25322;-53
2022/03/19 06:38:59;;;;;;;19.40;12.00;;;22.60;44.10;;;;;;222369;1273;24801;-53
2022/03/19 06:44:03;;;;;;;17.70;11.70;;;22.90;44.00;;;;;;219602;1273;22602;-51
2022/03/19 06:49:07;;;;;;;19.40;11.80;;;23.20;42.80;;;;;;219916;1276;25343;-51
2022/03/19 06:54:11;;;;;;;17.80;11.50;;;23.50;42.60;;;;;;222929;1273;22557;-55
2022/03/19 06:59:24;;;;;;;17.20;11.00;;;23.60;42.20;;;;;;219229;1273;25419;-51
2022/03/19 07:04:32;;;;;;;16.70;10.70;;;23.60;42.00;;;;;;219563;1274;23376;-52
2022/03/19 07:09:43;;;;;;;15.30;10.30;;;23.70;42.00;;;;;;220956;1273;22548;-52
2022/03/19 07:14:47;;;;;;;17.60;11.60;;;23.70;42.40;;;;;;219241;1273;25593;-51
2022/03/19 07:19:54;;;;;;;18.40;11.60;;;23.80;41.90;;;;;;219198;1273;25284;-52
2022/03/19 07:24:58;;;;;;;15.80;10.80;;;23.90;42.00;;;;;;219434;1273;22627;-53
2022/03/19 07:30:04;;;;;;;15.90;10.70;;;23.90;41.80;;;;;;219005;1273;22550;-53
2022/03/19 07:35:14;;;;;;;16.60;10.50;;;23.90;41.60;;;;;;223050;1273;24268;-56
2022/03/19 07:45:48;;;;;;;17.50;11.80;;;23.90;41.50;;;;;;219966;1273;25418;-53
2022/03/19 07:50:53;;;;;;;16.60;10.80;;;24.10;41.90;;;;;;221278;1273;22535;-51
2022/03/19 07:56:02;;;;;;;18.30;10.40;;;24.10;41.70;;;;;;220041;1273;25901;-52
2022/03/19 08:01:06;;;;;;;16.00;10.60;;;24.10;41.60;;;;;;220054;1273;22523;-52
2022/03/19 08:06:13;;;;;;;15.60;10.20;;;24.10;42.70;;;;;;220822;1273;23098;-53
2022/03/19 08:11:17;;;;;;;16.80;10.50;;;24.10;42.10;;;;;;221421;1273;22565;-52
2022/03/19 08:16:25;;;;;;;14.30;9.60;;;24.10;42.10;;;;;;219024;1273;24653;-51
2022/03/19 08:21:33;;;;;;;19.00;10.50;;;24.10;42.30;;;;;;220016;1273;22603;-51
2022/03/19 08:26:37;;;;;;;18.50;10.30;;;24.00;42.40;;;;;;221667;1273;22559;-55
2022/03/19 08:31:52;;;;;;;24.50;11.40;;;23.90;42.80;;;;;;221217;1273;22606;-49
2022/03/19 08:37:06;;;;;;;14.60;9.30;;;23.70;43.30;;;;;;219861;1273;22556;-52
2022/03/19 08:42:16;;;;;;;23.30;11.10;;;23.60;43.60;;;;;;219824;1273;22771;-53
2022/03/19 08:47:29;;;;;;;20.00;10.70;;;23.60;45.30;;;;;;220760;1273;24243;-54
2022/03/19 08:52:40;;;;;;;25.60;10.80;;;23.60;46.10;;;;;;224476;1272;23905;-52
2022/03/19 08:57:54;;;;;;;17.50;9.20;;;23.60;46.40;;;;;;220007;1274;25624;-54
2022/03/19 09:03:06;;;;;;;22.40;10.50;;;23.60;46.00;;;;;;221146;1274;23048;-53
2022/03/19 09:08:30;;;;;;;17.50;10.40;;;23.50;46.10;;;;;;221676;1273;25649;-56
2022/03/19 09:13:37;;;;;;;18.40;8.90;;;23.50;45.90;;;;;;219342;1274;22560;-54
2022/03/19 09:18:50;;;;;;;18.80;9.50;;;23.50;45.80;;;;;;221381;1274;22554;-54
2022/03/19 09:23:58;;;;;;;16.30;9.70;;;23.40;46.50;;;;;;221158;1274;25730;-55
2022/03/19 09:29:15;;;;;;;16.50;8.70;;;23.40;46.30;;;;;;222638;1275;22626;-55
2022/03/19 09:34:20;;;;;;;16.90;9.10;;;23.40;45.80;;;;;;219610;1274;24202;-55
2022/03/19 09:39:45;;;;;;;16.90;9.00;;;23.30;45.60;;;;;;218909;1273;22535;-53
2022/03/19 09:44:56;;;;;;;22.90;8.90;;;23.30;45.40;;;;;;219060;1274;22701;-53
2022/03/19 09:50:02;;;;;;;18.20;9.80;;;23.40;44.90;;;;;;221112;1274;23941;-53
2022/03/19 09:55:18;;;;;;;19.10;8.80;;;23.40;44.70;;;;;;221252;1274;25602;-54
2022/03/19 10:00:36;;;;;;;16.30;8.40;;;23.50;44.30;;;;;;218922;1274;22667;-55
2022/03/19 10:11:31;;;;;;;19.20;8.20;;;23.50;43.60;;;;;;223887;1274;25553;-55
2022/03/19 10:16:40;;;;;;;15.30;8.10;;;23.50;43.00;;;;;;219516;1274;22995;-56
2022/03/19 10:21:45;;;;;;;28.30;11.60;;;23.50;42.60;;;;;;218734;1274;22573;-53
2022/03/19 10:27:20;;;;;;;18.20;10.10;;;23.50;42.40;;;;;;222261;1274;22681;-55
2022/03/19 10:32:52;;;;;;;18.70;8.70;;;23.50;42.40;;;;;;222396;1273;22619;-54
2022/03/19 10:37:57;;;;;;;21.80;10.00;;;23.50;41.80;;;;;;219648;1275;24415;-54
2022/03/19 10:43:07;;;;;;;16.40;8.40;;;23.50;41.50;;;;;;219484;1275;22565;-54
2022/03/19 10:48:12;;;;;;;17.90;8.60;;;23.50;41.40;;;;;;219530;1274;24104;-55
2022/03/19 10:53:23;;;;;;;14.80;7.50;;;23.60;41.30;;;;;;219706;1273;22595;-55
2022/03/19 10:58:37;;;;;;;15.80;7.90;;;23.60;41.00;;;;;;218727;1274;25267;-53
2022/03/19 11:03:54;;;;;;;21.50;8.40;;;23.60;40.40;;;;;;218653;1274;22713;-51
2022/03/19 11:09:10;;;;;;;16.90;9.00;;;23.80;40.70;;;;;;219146;1274;22782;-55
2022/03/19 11:14:22;;;;;;;28.40;9.60;;;23.70;41.60;;;;;;219246;1274;25371;-54
2022/03/19 11:19:26;;;;;;;22.20;8.90;;;23.80;42.00;;;;;;219854;1273;25585;-54
2022/03/19 11:24:38;;;;;;;21.50;9.00;;;23.80;41.10;;;;;;221813;1275;24055;-57
2022/03/19 11:29:47;;;;;;;18.00;8.50;;;23.90;41.10;;;;;;219956;1273;25307;-55
2022/03/19 11:34:59;;;;;;;39.90;13.10;;;23.90;42.00;;;;;;218578;1273;22619;-52
2022/03/19 11:40:14;;;;;;;20.50;8.50;;;23.80;42.40;;;;;;221706;1273;24355;-53
2022/03/19 11:45:51;;;;;;;41.90;13.50;;;23.80;40.40;;;;;;218741;1273;22632;-50
2022/03/19 11:50:56;;;;;;;29.70;11.50;;;23.70;40.00;;;;;;220293;1273;22566;-54
2022/03/19 11:56:03;;;;;;;24.00;9.60;;;23.80;41.80;;;;;;219269;1273;25598;-54
2022/03/19 12:01:06;;;;;;;22.30;9.30;;;23.80;42.30;;;;;;219058;1273;22715;-53
2022/03/19 12:06:29;;;;;;;28.30;10.50;;;23.90;42.10;;;;;;221241;1271;26157;-54
2022/03/19 12:11:37;;;;;;;36.20;12.30;;;23.90;41.90;;;;;;222343;1272;25106;-55
2022/03/19 12:16:43;;;;;;;30.10;10.10;;;24.00;41.80;;;;;;218970;1272;22546;-56
2022/03/19 12:21:46;;;;;;;27.80;9.80;;;24.00;41.40;;;;;;219096;1273;24240;-53
2022/03/19 12:26:50;;;;;;;20.50;9.40;;;24.10;41.20;;;;;;218900;1273;22686;-51
2022/03/19 12:31:54;;;;;;;16.70;9.20;;;24.10;41.10;;;;;;219048;1273;25523;-53
2022/03/19 12:37:04;;;;;;;19.20;9.70;;;24.10;41.20;;;;;;218777;1273;24328;-49
2022/03/19 12:42:07;;;;;;;25.90;11.20;;;24.00;40.80;;;;;;219993;1272;24424;-53
2022/03/19 12:47:11;;;;;;;28.00;11.00;;;24.20;40.60;;;;;;218816;1273;22848;-50
2022/03/19 12:52:18;;;;;;;34.40;11.80;;;24.20;40.60;;;;;;218882;1273;25507;-51
2022/03/19 12:57:31;;;;;;;29.70;11.10;;;24.00;40.40;;;;;;218509;1273;22541;-51
2022/03/19 13:02:34;;;;;;;39.30;12.20;;;23.90;40.60;;;;;;221386;1273;25298;-52
2022/03/19 13:07:38;;;;;;;28.10;9.90;;;23.90;40.80;;;;;;218793;1273;28480;-52
2022/03/19 13:12:42;;;;;;;23.50;9.20;;;23.90;42.10;;;;;;218937;1273;23871;-51
2022/03/19 13:17:46;;;;;;;20.70;9.10;;;23.90;42.00;;;;;;218710;1273;23302;-52
2022/03/19 13:22:50;;;;;;;15.80;7.90;;;23.80;42.20;;;;;;218699;1273;24268;-51
2022/03/19 13:27:56;;;;;;;19.40;8.80;;;23.80;42.80;;;;;;218855;1273;25372;-49
2022/03/19 13:32:59;;;;;;;24.00;9.00;;;23.80;42.60;;;;;;219372;1273;25477;-51
2022/03/19 13:38:10;;;;;;;15.50;7.70;;;23.80;42.40;;;;;;221624;1274;22641;-50
2022/03/19 13:43:13;;;;;;;15.20;8.20;;;23.80;43.40;;;;;;218543;1274;24301;-50
2022/03/19 13:48:22;;;;;;;17.30;8.10;;;23.70;43.70;;;;;;219537;1273;22639;-54
2022/03/19 13:53:43;;;;;;;15.80;8.40;;;23.70;43.50;;;;;;220239;1273;26587;-50
2022/03/19 13:59:02;;;;;;;16.50;8.20;;;23.70;43.20;;;;;;221942;1273;25378;-54
2022/03/19 14:04:06;;;;;;;14.20;7.70;;;23.70;43.30;;;;;;218840;1273;22592;-51
2022/03/19 14:09:10;;;;;;;15.20;7.50;;;23.70;43.80;;;;;;219900;1273;22531;-53
2022/03/19 14:14:18;;;;;;;18.80;8.00;;;23.60;43.40;;;;;;218754;1273;22580;-51
2022/03/19 14:19:22;;;;;;;17.50;7.10;;;23.60;44.20;;;;;;218656;1274;22601;-53
2022/03/19 14:24:31;;;;;;;19.60;8.60;;;23.60;43.50;;;;;;219027;1273;24379;-52
2022/03/19 14:29:35;;;;;;;15.00;7.60;;;23.50;44.10;;;;;;220803;1273;22630;-53
2022/03/19 14:34:39;;;;;;;11.20;7.30;;;23.50;43.80;;;;;;219013;1273;23068;-52
2022/03/19 14:39:42;;;;;;;13.10;8.00;;;23.40;43.80;;;;;;221584;1273;24410;-54
2022/03/19 14:44:46;;;;;;;13.70;8.10;;;23.40;43.80;;;;;;218872;1273;25568;-51
2022/03/19 14:49:49;;;;;;;14.40;8.00;;;23.30;43.80;;;;;;222588;1272;25332;-50
2022/03/19 14:54:53;;;;;;;14.00;7.60;;;23.30;44.00;;;;;;219194;1274;22762;-51
2022/03/19 14:59:57;;;;;;;19.70;9.00;;;23.30;44.40;;;;;;218797;1273;24819;-50
2022/03/19 15:05:01;;;;;;;13.80;7.90;;;23.20;43.80;;;;;;219274;1274;22657;-54
2022/03/19 15:10:05;;;;;;;13.30;7.80;;;23.20;44.30;;;;;;218801;1273;26121;-50
2022/03/19 15:15:12;;;;;;;13.40;7.70;;;23.20;44.00;;;;;;218937;1272;25585;-51
2022/03/19 15:20:17;;;;;;;12.30;7.00;;;23.10;43.80;;;;;;222646;1273;24298;-52
2022/03/19 15:25:23;;;;;;;11.70;7.30;;;23.10;43.80;;;;;;219082;1273;25213;-53
2022/03/19 15:30:27;;;;;;;10.20;6.90;;;23.00;43.60;;;;;;219570;1273;26552;-50
2022/03/19 15:35:31;;;;;;;9.30;6.50;;;23.00;44.00;;;;;;219126;1273;24310;-54
2022/03/19 15:40:35;;;;;;;10.80;7.70;;;23.00;43.50;;;;;;218994;1273;23040;-50
2022/03/19 15:45:40;;;;;;;8.90;6.40;;;22.90;43.60;;;;;;220311;1273;27608;-52
2022/03/19 15:50:45;;;;;;;11.30;7.10;;;22.90;43.70;;;;;;219580;1274;24314;-51
2022/03/19 15:55:48;;;;;;;13.70;7.00;;;22.90;43.80;;;;;;219217;1273;25302;-52
2022/03/19 16:00:52;;;;;;;14.50;7.60;;;22.80;43.80;;;;;;218806;1273;24232;-51
2022/03/19 16:05:56;;;;;;;12.50;6.90;;;22.90;43.90;;;;;;219080;1271;25326;-51
2022/03/19 16:11:00;;;;;;;10.70;7.10;;;22.80;43.70;;;;;;219334;1273;22658;-52
2022/03/19 16:16:04;;;;;;;11.00;7.00;;;22.80;43.50;;;;;;219624;1273;25265;-52
2022/03/19 16:21:09;;;;;;;15.90;8.40;;;22.70;43.40;;;;;;222809;1273;24220;-52
2022/03/19 16:26:14;;;;;;;12.80;7.60;;;22.70;43.20;;;;;;219176;1273;22625;-50
2022/03/19 16:31:21;;;;;;;13.90;7.50;;;22.70;43.10;;;;;;218667;1274;25341;-50
2022/03/19 16:36:25;;;;;;;14.90;7.90;;;22.60;43.50;;;;;;221102;1273;24133;-54
2022/03/19 16:41:29;;;;;;;15.40;8.10;;;22.60;43.10;;;;;;218664;1275;25366;-49
2022/03/19 16:46:32;;;;;;;12.60;8.10;;;22.50;43.40;;;;;;219759;1273;232267;-51
2022/03/19 16:51:36;;;;;;;11.10;7.60;;;22.50;43.10;;;;;;221070;1273;25302;-53
2022/03/19 16:56:39;;;;;;;11.40;8.20;;;22.50;42.50;;;;;;218991;1273;22540;-53
2022/03/19 17:01:44;;;;;;;11.30;8.10;;;22.40;42.40;;;;;;220479;1273;22559;-52
2022/03/19 17:06:48;;;;;;;12.10;8.10;;;22.40;42.10;;;;;;221909;1273;22567;-52
2022/03/19 17:11:52;;;;;;;12.50;8.30;;;22.60;41.40;;;;;;219317;1273;22535;-53
2022/03/19 17:16:56;;;;;;;13.30;9.20;;;22.90;40.70;;;;;;218985;1273;25378;-50
2022/03/19 17:21:59;;;;;;;16.10;10.60;;;23.10;40.40;;;;;;218769;1273;22549;-50
2022/03/19 17:27:03;;;;;;;13.70;9.70;;;23.30;39.60;;;;;;220882;1272;22579;-55
2022/03/19 17:32:07;;;;;;;15.00;10.30;;;23.40;39.40;;;;;;219133;1273;22695;-53
2022/03/19 17:37:11;;;;;;;16.40;10.20;;;23.50;39.10;;;;;;220992;1273;25472;-50
2022/03/19 17:42:17;;;;;;;17.70;11.10;;;23.50;38.90;;;;;;219654;1273;22672;-52
2022/03/19 17:47:26;;;;;;;16.80;10.50;;;23.50;38.90;;;;;;219723;1273;24241;-53
2022/03/19 17:52:32;;;;;;;18.40;10.70;;;23.60;38.60;;;;;;218937;1273;25400;-51
2022/03/19 17:57:37;;;;;;;15.30;10.00;;;23.60;39.00;;;;;;222780;1272;23026;-50
2022/03/19 18:02:41;;;;;;;15.60;10.00;;;23.60;38.20;;;;;;219486;1272;25458;-54
2022/03/19 18:07:46;;;;;;;13.30;9.60;;;23.60;38.60;;;;;;219372;1273;24323;-50
2022/03/19 18:12:52;;;;;;;14.40;10.00;;;23.60;38.10;;;;;;219287;1273;22757;-53
2022/03/19 18:17:56;;;;;;;17.40;10.90;;;23.60;37.90;;;;;;219010;1273;25375;-51
2022/03/19 18:23:21;;;;;;;16.00;10.40;;;23.60;37.30;;;;;;220525;1274;22550;-50
2022/03/19 18:28:34;;;;;;;15.50;10.70;;;23.70;37.60;;;;;;218689;1274;22636;-51
2022/03/19 18:33:47;;;;;;;15.90;10.60;;;23.80;36.90;;;;;;218986;1273;23333;-50
2022/03/19 18:39:04;;;;;;;15.80;10.10;;;23.80;37.00;;;;;;218917;1273;22557;-51
2022/03/19 18:44:24;;;;;;;14.30;10.70;;;24.00;36.90;;;;;;218987;1273;22729;-50
2022/03/19 18:49:29;;;;;;;18.10;11.30;;;24.00;36.90;;;;;;220347;1273;22588;-54
2022/03/19 18:54:34;;;;;;;16.80;10.90;;;24.10;37.10;;;;;;222160;1273;22610;-51
2022/03/19 18:59:43;;;;;;;16.40;10.60;;;24.20;37.00;;;;;;219143;1273;26850;-53
2022/03/19 19:04:57;;;;;;;20.20;12.00;;;24.20;37.80;;;;;;218888;1274;25582;-49
2022/03/19 19:10:05;;;;;;;21.90;12.70;;;24.20;37.00;;;;;;219205;1273;24471;-53
2022/03/19 19:15:09;;;;;;;20.90;12.80;;;24.30;37.00;;;;;;219325;1273;25613;-52
2022/03/19 19:20:14;;;;;;;19.80;11.60;;;24.30;37.00;;;;;;219010;1273;22788;-51
2022/03/19 19:25:31;;;;;;;17.30;11.50;;;24.30;36.90;;;;;;219762;1273;25399;-50
2022/03/19 19:30:38;;;;;;;17.30;12.10;;;24.40;37.30;;;;;;219914;1272;24306;-52
2022/03/19 19:35:53;;;;;;;21.60;13.50;;;24.50;36.80;;;;;;221105;1273;23190;-52
2022/03/19 19:41:09;;;;;;;17.60;12.40;;;24.40;36.70;;;;;;219136;1273;24318;-53
2022/03/19 19:46:17;;;;;;;21.80;12.80;;;24.40;36.80;;;;;;219324;1273;24244;-52
2022/03/19 19:51:46;;;;;;;;;;;;;;;;;;;;;
2022/03/19 20:02:46;;;;;;;18.70;12.70;;;24.10;37.40;;;;;;221065;1272;24387;-52
2022/03/19 20:07:51;;;;;;;25.90;13.40;;;23.90;37.80;;;;;;222990;1273;24470;-50
2022/03/19 20:12:57;;;;;;;24.20;13.50;;;23.90;38.40;;;;;;219184;1273;22854;-53
2022/03/19 20:18:02;;;;;;;20.50;11.00;;;23.80;38.50;;;;;;222245;1273;22728;-54
2022/03/19 20:23:12;;;;;;;20.40;11.80;;;23.60;38.70;;;;;;222534;1273;26648;-53
2022/03/19 20:28:17;;;;;;;20.50;12.00;;;23.60;38.30;;;;;;219245;1273;22808;-54
2022/03/19 20:33:21;;;;;;;20.20;11.60;;;23.50;38.50;;;;;;219114;1273;22557;-51
2022/03/19 20:38:25;;;;;;;20.20;11.90;;;23.40;38.80;;;;;;218701;1273;22602;-52
2022/03/19 20:43:35;;;;;;;20.30;11.40;;;23.30;38.90;;;;;;219865;1272;24323;-52
2022/03/19 20:48:39;;;;;;;19.60;11.90;;;23.20;39.10;;;;;;219157;1273;22714;-50
2022/03/19 20:53:44;;;;;;;24.60;13.30;;;23.20;39.40;;;;;;219685;1273;22626;-51
2022/03/19 20:58:56;;;;;;;19.90;12.00;;;23.20;39.20;;;;;;218651;1273;24434;-53
2022/03/19 21:04:09;;;;;;;19.90;12.80;;;23.10;39.80;;;;;;219091;1273;22532;-53
2022/03/19 21:09:20;;;;;;;16.10;11.40;;;23.00;39.90;;;;;;221344;1274;22916;-53
2022/03/19 21:14:25;;;;;;;20.40;11.20;;;23.00;40.20;;;;;;220189;1273;22569;-53
2022/03/19 21:19:34;;;;;;;23.10;12.30;;;23.00;41.90;;;;;;220141;1273;24211;-54
2022/03/19 21:24:43;;;;;;;23.00;13.30;;;22.90;41.70;;;;;;219726;1273;22707;-53
2022/03/19 21:29:51;;;;;;;21.20;11.10;;;22.90;41.70;;;;;;219017;1273;25267;-50
2022/03/19 21:34:55;;;;;;;21.10;11.60;;;22.90;41.90;;;;;;219576;1273;22601;-51
2022/03/19 21:45:33;;;;;;;26.20;13.80;;;22.80;42.20;;;;;;219219;1273;27506;-51
2022/03/19 21:50:38;;;;;;;23.10;13.60;;;22.70;41.80;;;;;;219432;1271;23922;-51
2022/03/19 21:55:41;;;;;;;20.50;12.90;;;22.70;42.40;;;;;;220093;1273;22609;-53
2022/03/19 22:00:45;;;;;;;24.80;14.60;;;22.70;42.20;;;;;;221620;1272;22726;-54
2022/03/19 22:05:49;;;;;;;22.50;13.40;;;22.60;43.10;;;;;;219257;1273;22535;-54
2022/03/19 22:10:53;;;;;;;22.50;13.90;;;22.60;42.60;;;;;;219241;1273;22722;-52
2022/03/19 22:15:56;;;;;;;24.20;13.20;;;22.60;44.50;;;;;;218631;1273;25379;-54
2022/03/19 22:21:02;;;;;;;27.70;12.40;;;22.60;44.80;;;;;;218699;1273;22537;-54
2022/03/19 22:26:06;;;;;;;27.00;12.10;;;22.60;44.80;;;;;;218742;1273;22616;-51
2022/03/19 22:31:09;;;;;;;18.80;10.80;;;22.50;44.80;;;;;;218885;1273;25370;-51
2022/03/19 22:36:19;;;;;;;20.30;12.10;;;22.50;45.00;;;;;;218901;1273;22644;-51
2022/03/19 22:41:23;;;;;;;18.40;11.90;;;22.40;44.90;;;;;;218893;1273;22540;-53
2022/03/19 22:46:26;;;;;;;20.00;12.30;;;22.40;44.80;;;;;;219723;1273;22550;-53
2022/03/19 22:51:33;;;;;;;23.90;13.30;;;22.40;44.80;;;;;;218830;1273;22564;-54
2022/03/19 22:56:37;;;;;;;18.10;11.90;;;22.30;44.80;;;;;;225179;1274;22644;-55
2022/03/19 23:01:41;;;;;;;22.80;12.50;;;22.30;44.80;;;;;;218727;1273;22563;-52
2022/03/19 23:06:48;;;;;;;17.70;10.30;;;22.20;44.80;;;;;;218705;1273;25627;-51
2022/03/19 23:11:54;;;;;;;17.80;11.30;;;22.20;44.90;;;;;;218834;1273;26589;-51
2022/03/19 23:17:07;;;;;;;16.80;11.50;;;22.20;44.90;;;;;;219199;1273;25314;-53
2022/03/19 23:22:11;;;;;;;18.60;11.70;;;22.20;44.40;;;;;;219288;1273;22546;-52
2022/03/19 23:27:26;;;;;;;17.90;10.80;;;22.50;44.40;;;;;;219620;1273;22609;-53
2022/03/19 23:32:38;;;;;;;17.80;11.50;;;22.90;43.40;;;;;;223835;1273;22710;-54
2022/03/19 23:37:48;;;;;;;19.10;10.70;;;23.30;42.70;;;;;;222776;1273;25272;-51
2022/03/19 23:43:11;;;;;;;19.40;11.80;;;23.50;42.40;;;;;;220324;1273;27432;-52
2022/03/19 23:48:42;;;;;;;17.20;11.00;;;23.50;42.40;;;;;;220368;1271;25532;-56
2022/03/19 23:53:56;;;;;;;19.50;11.30;;;23.60;42.70;;;;;;221176;1273;22424;-51
2022/03/19 23:59:23;;;;;;;16.90;10.90;;;23.80;41.80;;;;;;219349;1272;25427;-52
